sensor_id;sensor_type;location;lat;lon;timestamp;P1;durP1;ratioP1;P2;durP2;ratioP2
72941;SDS011;69665;55.822;37.330;2023-05-10T00:00:32;12.15;;;6.35;;
72941;SDS011;69665;55.822;37.330;2023-05-10T00:02:58;13.02;;;6.30;;
72941;SDS011;69665;55.822;37.330;2023-05-10T00:05:23;14.52;;;7.05;;
72941;SDS011;69665;55.822;37.330;2023-05-10T00:07:49;11.38;;;5.90;;
72941;SDS011;69665;55.822;37.330;2023-05-10T00:10:14;12.02;;;5.72;;
72941;SDS011;69665;55.822;37.330;2023-05-10T00:12:40;11.48;;;5.43;;
72941;SDS011;69665;55.822;37.330;2023-05-10T00:15:05;13.45;;;5.88;;
72941;SDS011;69665;55.822;37.330;2023-05-10T00:17:32;12.55;;;5.97;;
72941;SDS011;69665;55.822;37.330;2023-05-10T00:19:57;11.77;;;5.93;;
72941;SDS011;69665;55.822;37.330;2023-05-10T00:22:23;9.80;;;5.32;;
72941;SDS011;69665;55.822;37.330;2023-05-10T00:24:48;9.75;;;5.20;;
72941;SDS011;69665;55.822;37.330;2023-05-10T00:27:14;13.55;;;5.72;;
72941;SDS011;69665;55.822;37.330;2023-05-10T00:29:39;12.38;;;5.28;;
72941;SDS011;69665;55.822;37.330;2023-05-10T00:32:05;12.10;;;5.10;;
72941;SDS011;69665;55.822;37.330;2023-05-10T00:34:31;15.85;;;5.88;;
72941;SDS011;69665;55.822;37.330;2023-05-10T00:36:57;10.05;;;4.93;;
72941;SDS011;69665;55.822;37.330;2023-05-10T00:39:22;11.27;;;5.40;;
72941;SDS011;69665;55.822;37.330;2023-05-10T00:41:48;12.38;;;5.57;;
72941;SDS011;69665;55.822;37.330;2023-05-10T00:44:14;11.75;;;6.18;;
72941;SDS011;69665;55.822;37.330;2023-05-10T00:46:41;12.25;;;5.03;;
72941;SDS011;69665;55.822;37.330;2023-05-10T00:49:07;12.18;;;5.55;;
72941;SDS011;69665;55.822;37.330;2023-05-10T00:51:32;11.25;;;4.90;;
72941;SDS011;69665;55.822;37.330;2023-05-10T00:53:58;10.15;;;5.05;;
72941;SDS011;69665;55.822;37.330;2023-05-10T00:56:24;11.90;;;5.72;;
72941;SDS011;69665;55.822;37.330;2023-05-10T00:58:50;13.70;;;6.07;;
72941;SDS011;69665;55.822;37.330;2023-05-10T01:01:16;12.32;;;5.50;;
72941;SDS011;69665;55.822;37.330;2023-05-10T01:03:42;10.15;;;5.75;;
72941;SDS011;69665;55.822;37.330;2023-05-10T01:06:08;12.25;;;5.18;;
72941;SDS011;69665;55.822;37.330;2023-05-10T01:08:35;11.27;;;5.28;;
72941;SDS011;69665;55.822;37.330;2023-05-10T01:11:04;10.73;;;5.45;;
72941;SDS011;69665;55.822;37.330;2023-05-10T01:15:58;11.68;;;4.97;;
72941;SDS011;69665;55.822;37.330;2023-05-10T01:18:24;12.10;;;5.80;;
72941;SDS011;69665;55.822;37.330;2023-05-10T01:20:55;12.55;;;5.22;;
72941;SDS011;69665;55.822;37.330;2023-05-10T01:43:01;14.98;;;5.60;;
72941;SDS011;69665;55.822;37.330;2023-05-10T01:45:31;11.88;;;5.72;;
72941;SDS011;69665;55.822;37.330;2023-05-10T01:48:06;10.90;;;5.75;;
72941;SDS011;69665;55.822;37.330;2023-05-10T01:50:34;14.85;;;7.38;;
72941;SDS011;69665;55.822;37.330;2023-05-10T01:53:06;16.25;;;8.80;;
72941;SDS011;69665;55.822;37.330;2023-05-10T01:55:35;16.60;;;8.02;;
72941;SDS011;69665;55.822;37.330;2023-05-10T01:58:27;15.20;;;6.15;;
72941;SDS011;69665;55.822;37.330;2023-05-10T02:00:56;11.52;;;5.57;;
72941;SDS011;69665;55.822;37.330;2023-05-10T02:03:25;12.35;;;5.50;;
72941;SDS011;69665;55.822;37.330;2023-05-10T02:05:53;13.77;;;5.50;;
72941;SDS011;69665;55.822;37.330;2023-05-10T02:08:21;13.02;;;5.10;;
72941;SDS011;69665;55.822;37.330;2023-05-10T02:10:47;10.25;;;5.20;;
72941;SDS011;69665;55.822;37.330;2023-05-10T02:13:15;11.82;;;5.28;;
72941;SDS011;69665;55.822;37.330;2023-05-10T02:15:43;10.43;;;5.75;;
72941;SDS011;69665;55.822;37.330;2023-05-10T02:18:12;12.73;;;5.68;;
72941;SDS011;69665;55.822;37.330;2023-05-10T02:20:39;13.07;;;5.90;;
72941;SDS011;69665;55.822;37.330;2023-05-10T02:23:05;10.93;;;5.82;;
72941;SDS011;69665;55.822;37.330;2023-05-10T02:25:31;12.27;;;5.10;;
72941;SDS011;69665;55.822;37.330;2023-05-10T02:27:58;13.68;;;5.63;;
72941;SDS011;69665;55.822;37.330;2023-05-10T02:30:27;12.10;;;5.97;;
72941;SDS011;69665;55.822;37.330;2023-05-10T02:32:54;11.70;;;5.28;;
72941;SDS011;69665;55.822;37.330;2023-05-10T02:35:22;12.45;;;5.68;;
72941;SDS011;69665;55.822;37.330;2023-05-10T02:37:50;11.90;;;5.53;;
72941;SDS011;69665;55.822;37.330;2023-05-10T02:40:17;13.43;;;5.40;;
72941;SDS011;69665;55.822;37.330;2023-05-10T02:42:44;10.93;;;5.60;;
72941;SDS011;69665;55.822;37.330;2023-05-10T02:45:15;11.05;;;5.45;;
72941;SDS011;69665;55.822;37.330;2023-05-10T02:47:44;12.63;;;5.80;;
72941;SDS011;69665;55.822;37.330;2023-05-10T02:50:10;12.60;;;5.22;;
72941;SDS011;69665;55.822;37.330;2023-05-10T02:52:40;13.70;;;6.15;;
72941;SDS011;69665;55.822;37.330;2023-05-10T02:55:14;13.13;;;5.82;;
72941;SDS011;69665;55.822;37.330;2023-05-10T02:57:48;11.40;;;5.60;;
72941;SDS011;69665;55.822;37.330;2023-05-10T03:00:19;12.52;;;5.32;;
72941;SDS011;69665;55.822;37.330;2023-05-10T03:02:44;13.65;;;6.22;;
72941;SDS011;69665;55.822;37.330;2023-05-10T03:05:10;14.38;;;5.72;;
72941;SDS011;69665;55.822;37.330;2023-05-10T03:07:35;11.45;;;5.20;;
72941;SDS011;69665;55.822;37.330;2023-05-10T03:10:04;12.35;;;5.72;;
72941;SDS011;69665;55.822;37.330;2023-05-10T03:15:18;12.93;;;6.00;;
72941;SDS011;69665;55.822;37.330;2023-05-10T03:17:55;9.63;;;5.18;;
72941;SDS011;69665;55.822;37.330;2023-05-10T03:20:38;16.77;;;6.18;;
72941;SDS011;69665;55.822;37.330;2023-05-10T03:23:12;12.65;;;5.68;;
72941;SDS011;69665;55.822;37.330;2023-05-10T03:25:46;12.68;;;6.43;;
72941;SDS011;69665;55.822;37.330;2023-05-10T03:28:14;11.07;;;5.40;;
72941;SDS011;69665;55.822;37.330;2023-05-10T03:30:41;12.48;;;6.10;;
72941;SDS011;69665;55.822;37.330;2023-05-10T03:33:10;15.75;;;6.75;;
72941;SDS011;69665;55.822;37.330;2023-05-10T03:35:40;15.18;;;6.25;;
72941;SDS011;69665;55.822;37.330;2023-05-10T03:38:05;11.52;;;5.57;;
72941;SDS011;69665;55.822;37.330;2023-05-10T03:40:31;11.52;;;5.93;;
72941;SDS011;69665;55.822;37.330;2023-05-10T03:43:00;12.80;;;5.45;;
72941;SDS011;69665;55.822;37.330;2023-05-10T03:45:26;14.52;;;6.32;;
72941;SDS011;69665;55.822;37.330;2023-05-10T03:47:52;11.60;;;5.65;;
72941;SDS011;69665;55.822;37.330;2023-05-10T03:50:18;10.75;;;5.75;;
72941;SDS011;69665;55.822;37.330;2023-05-10T03:52:44;13.88;;;5.68;;
72941;SDS011;69665;55.822;37.330;2023-05-10T03:55:10;15.15;;;5.80;;
72941;SDS011;69665;55.822;37.330;2023-05-10T03:57:39;12.27;;;5.85;;
72941;SDS011;69665;55.822;37.330;2023-05-10T04:00:06;13.10;;;6.47;;
72941;SDS011;69665;55.822;37.330;2023-05-10T04:02:39;13.23;;;6.68;;
72941;SDS011;69665;55.822;37.330;2023-05-10T04:05:07;13.27;;;5.15;;
72941;SDS011;69665;55.822;37.330;2023-05-10T04:07:32;13.90;;;5.63;;
72941;SDS011;69665;55.822;37.330;2023-05-10T04:09:58;13.07;;;6.00;;
72941;SDS011;69665;55.822;37.330;2023-05-10T04:12:23;14.00;;;5.53;;
72941;SDS011;69665;55.822;37.330;2023-05-10T04:14:49;11.68;;;5.47;;
72941;SDS011;69665;55.822;37.330;2023-05-10T04:17:16;11.30;;;5.45;;
72941;SDS011;69665;55.822;37.330;2023-05-10T04:19:41;11.05;;;5.30;;
72941;SDS011;69665;55.822;37.330;2023-05-10T04:22:07;11.48;;;5.75;;
72941;SDS011;69665;55.822;37.330;2023-05-10T04:24:32;12.98;;;5.60;;
72941;SDS011;69665;55.822;37.330;2023-05-10T04:26:58;12.68;;;5.43;;
72941;SDS011;69665;55.822;37.330;2023-05-10T04:29:23;13.07;;;5.85;;
72941;SDS011;69665;55.822;37.330;2023-05-10T04:31:49;9.98;;;4.95;;
72941;SDS011;69665;55.822;37.330;2023-05-10T04:34:14;13.88;;;5.07;;
72941;SDS011;69665;55.822;37.330;2023-05-10T04:36:40;13.23;;;5.50;;
72941;SDS011;69665;55.822;37.330;2023-05-10T04:39:05;13.93;;;5.93;;
72941;SDS011;69665;55.822;37.330;2023-05-10T04:41:31;11.13;;;5.63;;
72941;SDS011;69665;55.822;37.330;2023-05-10T04:43:56;13.07;;;5.45;;
72941;SDS011;69665;55.822;37.330;2023-05-10T04:46:22;13.85;;;5.57;;
72941;SDS011;69665;55.822;37.330;2023-05-10T04:48:47;11.88;;;4.97;;
72941;SDS011;69665;55.822;37.330;2023-05-10T04:51:13;10.43;;;5.07;;
72941;SDS011;69665;55.822;37.330;2023-05-10T04:53:38;11.35;;;5.28;;
72941;SDS011;69665;55.822;37.330;2023-05-10T04:56:04;11.40;;;6.47;;
72941;SDS011;69665;55.822;37.330;2023-05-10T04:58:30;10.95;;;5.88;;
72941;SDS011;69665;55.822;37.330;2023-05-10T05:00:56;19.90;;;5.90;;
72941;SDS011;69665;55.822;37.330;2023-05-10T05:03:21;12.98;;;5.43;;
72941;SDS011;69665;55.822;37.330;2023-05-10T05:05:47;12.65;;;4.85;;
72941;SDS011;69665;55.822;37.330;2023-05-10T05:08:13;9.27;;;4.88;;
72941;SDS011;69665;55.822;37.330;2023-05-10T05:10:39;13.32;;;5.30;;
72941;SDS011;69665;55.822;37.330;2023-05-10T05:13:05;16.85;;;4.80;;
72941;SDS011;69665;55.822;37.330;2023-05-10T05:15:30;11.40;;;5.10;;
72941;SDS011;69665;55.822;37.330;2023-05-10T05:17:56;9.95;;;4.40;;
72941;SDS011;69665;55.822;37.330;2023-05-10T05:20:22;8.68;;;4.13;;
72941;SDS011;69665;55.822;37.330;2023-05-10T05:22:47;9.50;;;4.18;;
72941;SDS011;69665;55.822;37.330;2023-05-10T05:25:13;8.50;;;4.13;;
72941;SDS011;69665;55.822;37.330;2023-05-10T05:27:40;8.40;;;3.92;;
72941;SDS011;69665;55.822;37.330;2023-05-10T05:30:06;7.63;;;3.67;;
72941;SDS011;69665;55.822;37.330;2023-05-10T05:32:32;9.68;;;3.83;;
72941;SDS011;69665;55.822;37.330;2023-05-10T05:34:57;8.88;;;3.78;;
72941;SDS011;69665;55.822;37.330;2023-05-10T05:37:23;7.00;;;3.47;;
72941;SDS011;69665;55.822;37.330;2023-05-10T05:39:49;9.70;;;3.33;;
72941;SDS011;69665;55.822;37.330;2023-05-10T05:42:15;9.50;;;3.78;;
72941;SDS011;69665;55.822;37.330;2023-05-10T05:44:42;7.30;;;2.55;;
72941;SDS011;69665;55.822;37.330;2023-05-10T05:47:08;10.57;;;2.80;;
72941;SDS011;69665;55.822;37.330;2023-05-10T05:49:34;7.18;;;2.65;;
72941;SDS011;69665;55.822;37.330;2023-05-10T05:52:00;7.18;;;2.42;;
72941;SDS011;69665;55.822;37.330;2023-05-10T05:54:26;6.93;;;2.85;;
72941;SDS011;69665;55.822;37.330;2023-05-10T05:56:55;7.85;;;2.72;;
72941;SDS011;69665;55.822;37.330;2023-05-10T05:59:25;6.22;;;2.65;;
72941;SDS011;69665;55.822;37.330;2023-05-10T06:01:51;6.60;;;2.13;;
72941;SDS011;69665;55.822;37.330;2023-05-10T06:04:16;5.55;;;1.95;;
72941;SDS011;69665;55.822;37.330;2023-05-10T06:06:42;7.72;;;2.10;;
72941;SDS011;69665;55.822;37.330;2023-05-10T06:09:08;4.80;;;1.98;;
72941;SDS011;69665;55.822;37.330;2023-05-10T06:11:34;6.60;;;2.08;;
72941;SDS011;69665;55.822;37.330;2023-05-10T06:14:00;6.70;;;2.47;;
72941;SDS011;69665;55.822;37.330;2023-05-10T06:16:27;9.45;;;2.30;;
72941;SDS011;69665;55.822;37.330;2023-05-10T06:18:53;5.93;;;2.63;;
72941;SDS011;69665;55.822;37.330;2023-05-10T06:21:18;7.45;;;2.15;;
72941;SDS011;69665;55.822;37.330;2023-05-10T06:23:44;5.57;;;2.10;;
72941;SDS011;69665;55.822;37.330;2023-05-10T06:26:09;5.60;;;2.33;;
72941;SDS011;69665;55.822;37.330;2023-05-10T06:28:35;10.27;;;3.53;;
72941;SDS011;69665;55.822;37.330;2023-05-10T06:31:04;6.38;;;2.40;;
72941;SDS011;69665;55.822;37.330;2023-05-10T06:33:30;8.80;;;2.00;;
72941;SDS011;69665;55.822;37.330;2023-05-10T06:35:56;9.32;;;2.03;;
72941;SDS011;69665;55.822;37.330;2023-05-10T06:38:22;6.85;;;2.17;;
72941;SDS011;69665;55.822;37.330;2023-05-10T06:40:48;5.70;;;2.38;;
72941;SDS011;69665;55.822;37.330;2023-05-10T06:43:13;7.97;;;2.67;;
72941;SDS011;69665;55.822;37.330;2023-05-10T06:45:39;5.47;;;2.08;;
72941;SDS011;69665;55.822;37.330;2023-05-10T06:48:04;5.50;;;2.00;;
72941;SDS011;69665;55.822;37.330;2023-05-10T06:50:30;5.88;;;2.45;;
72941;SDS011;69665;55.822;37.330;2023-05-10T06:52:56;6.90;;;2.80;;
72941;SDS011;69665;55.822;37.330;2023-05-10T06:55:24;6.57;;;2.50;;
72941;SDS011;69665;55.822;37.330;2023-05-10T06:57:51;4.95;;;1.98;;
72941;SDS011;69665;55.822;37.330;2023-05-10T07:00:18;5.57;;;1.98;;
72941;SDS011;69665;55.822;37.330;2023-05-10T07:02:44;6.97;;;2.20;;
72941;SDS011;69665;55.822;37.330;2023-05-10T07:05:09;6.93;;;2.53;;
72941;SDS011;69665;55.822;37.330;2023-05-10T07:07:35;5.15;;;2.10;;
72941;SDS011;69665;55.822;37.330;2023-05-10T07:10:01;5.65;;;2.33;;
72941;SDS011;69665;55.822;37.330;2023-05-10T07:12:30;9.80;;;2.53;;
72941;SDS011;69665;55.822;37.330;2023-05-10T07:14:55;8.70;;;2.58;;
72941;SDS011;69665;55.822;37.330;2023-05-10T07:17:21;7.78;;;2.75;;
72941;SDS011;69665;55.822;37.330;2023-05-10T07:19:46;6.28;;;2.80;;
72941;SDS011;69665;55.822;37.330;2023-05-10T07:22:12;6.72;;;3.10;;
72941;SDS011;69665;55.822;37.330;2023-05-10T07:24:38;7.97;;;2.95;;
72941;SDS011;69665;55.822;37.330;2023-05-10T07:27:03;6.53;;;2.53;;
72941;SDS011;69665;55.822;37.330;2023-05-10T07:29:29;6.90;;;2.50;;
72941;SDS011;69665;55.822;37.330;2023-05-10T07:31:55;8.75;;;2.83;;
72941;SDS011;69665;55.822;37.330;2023-05-10T07:34:20;6.35;;;2.58;;
72941;SDS011;69665;55.822;37.330;2023-05-10T07:36:46;7.55;;;2.47;;
72941;SDS011;69665;55.822;37.330;2023-05-10T07:39:12;7.18;;;2.42;;
72941;SDS011;69665;55.822;37.330;2023-05-10T07:41:37;7.35;;;2.70;;
72941;SDS011;69665;55.822;37.330;2023-05-10T07:44:04;6.30;;;1.92;;
72941;SDS011;69665;55.822;37.330;2023-05-10T07:46:30;5.25;;;2.00;;
72941;SDS011;69665;55.822;37.330;2023-05-10T07:48:55;5.57;;;2.03;;
72941;SDS011;69665;55.822;37.330;2023-05-10T07:51:21;6.15;;;1.98;;
72941;SDS011;69665;55.822;37.330;2023-05-10T07:53:46;7.40;;;2.30;;
72941;SDS011;69665;55.822;37.330;2023-05-10T07:56:25;5.50;;;2.10;;
72941;SDS011;69665;55.822;37.330;2023-05-10T07:58:54;6.03;;;1.98;;
72941;SDS011;69665;55.822;37.330;2023-05-10T08:01:20;5.63;;;1.92;;
72941;SDS011;69665;55.822;37.330;2023-05-10T08:03:47;5.78;;;2.20;;
72941;SDS011;69665;55.822;37.330;2023-05-10T08:06:13;5.78;;;2.33;;
72941;SDS011;69665;55.822;37.330;2023-05-10T08:08:41;5.20;;;2.22;;
72941;SDS011;69665;55.822;37.330;2023-05-10T08:11:07;5.38;;;1.88;;
72941;SDS011;69665;55.822;37.330;2023-05-10T08:13:32;5.40;;;1.98;;
72941;SDS011;69665;55.822;37.330;2023-05-10T08:15:58;5.00;;;2.05;;
72941;SDS011;69665;55.822;37.330;2023-05-10T08:18:24;6.50;;;2.28;;
72941;SDS011;69665;55.822;37.330;2023-05-10T08:20:49;4.82;;;2.08;;
72941;SDS011;69665;55.822;37.330;2023-05-10T08:23:15;5.95;;;2.20;;
72941;SDS011;69665;55.822;37.330;2023-05-10T08:25:40;6.25;;;2.42;;
72941;SDS011;69665;55.822;37.330;2023-05-10T08:28:06;5.10;;;2.05;;
72941;SDS011;69665;55.822;37.330;2023-05-10T08:30:32;5.38;;;2.13;;
72941;SDS011;69665;55.822;37.330;2023-05-10T08:32:57;4.32;;;1.90;;
72941;SDS011;69665;55.822;37.330;2023-05-10T08:35:23;4.53;;;2.15;;
72941;SDS011;69665;55.822;37.330;2023-05-10T08:37:50;4.05;;;1.70;;
72941;SDS011;69665;55.822;37.330;2023-05-10T08:40:16;4.10;;;1.70;;
72941;SDS011;69665;55.822;37.330;2023-05-10T08:42:47;3.60;;;1.70;;
72941;SDS011;69665;55.822;37.330;2023-05-10T08:45:20;3.78;;;1.58;;
72941;SDS011;69665;55.822;37.330;2023-05-10T08:47:48;5.32;;;2.00;;
72941;SDS011;69665;55.822;37.330;2023-05-10T08:50:14;5.15;;;2.08;;
72941;SDS011;69665;55.822;37.330;2023-05-10T08:52:42;4.40;;;1.98;;
72941;SDS011;69665;55.822;37.330;2023-05-10T08:55:10;7.05;;;2.00;;
72941;SDS011;69665;55.822;37.330;2023-05-10T08:57:35;6.15;;;2.05;;
72941;SDS011;69665;55.822;37.330;2023-05-10T09:00:01;6.47;;;1.83;;
72941;SDS011;69665;55.822;37.330;2023-05-10T09:02:30;4.90;;;1.83;;
72941;SDS011;69665;55.822;37.330;2023-05-10T09:04:56;5.07;;;1.90;;
72941;SDS011;69665;55.822;37.330;2023-05-10T09:07:21;5.00;;;1.77;;
72941;SDS011;69665;55.822;37.330;2023-05-10T09:09:47;3.92;;;1.45;;
72941;SDS011;69665;55.822;37.330;2023-05-10T09:12:13;4.50;;;1.70;;
72941;SDS011;69665;55.822;37.330;2023-05-10T09:14:41;5.30;;;2.00;;
72941;SDS011;69665;55.822;37.330;2023-05-10T09:17:09;4.70;;;2.08;;
72941;SDS011;69665;55.822;37.330;2023-05-10T09:19:35;4.13;;;1.48;;
72941;SDS011;69665;55.822;37.330;2023-05-10T09:22:01;5.80;;;1.90;;
72941;SDS011;69665;55.822;37.330;2023-05-10T09:24:29;6.15;;;1.63;;
72941;SDS011;69665;55.822;37.330;2023-05-10T09:26:56;4.30;;;1.85;;
72941;SDS011;69665;55.822;37.330;2023-05-10T09:29:22;4.28;;;1.60;;
72941;SDS011;69665;55.822;37.330;2023-05-10T09:34:28;4.55;;;1.73;;
72941;SDS011;69665;55.822;37.330;2023-05-10T09:39:29;4.75;;;1.92;;
72941;SDS011;69665;55.822;37.330;2023-05-10T09:41:59;2.50;;;1.23;;
72941;SDS011;69665;55.822;37.330;2023-05-10T09:44:29;5.10;;;1.70;;
72941;SDS011;69665;55.822;37.330;2023-05-10T09:46:55;4.40;;;1.60;;
72941;SDS011;69665;55.822;37.330;2023-05-10T09:49:21;5.78;;;1.70;;
72941;SDS011;69665;55.822;37.330;2023-05-10T09:51:47;4.57;;;1.75;;
72941;SDS011;69665;55.822;37.330;2023-05-10T09:54:27;5.85;;;1.90;;
72941;SDS011;69665;55.822;37.330;2023-05-10T09:56:53;4.97;;;2.00;;
72941;SDS011;69665;55.822;37.330;2023-05-10T09:59:18;4.88;;;1.70;;
72941;SDS011;69665;55.822;37.330;2023-05-10T10:02:05;3.60;;;1.65;;
72941;SDS011;69665;55.822;37.330;2023-05-10T10:04:31;3.53;;;1.40;;
72941;SDS011;69665;55.822;37.330;2023-05-10T10:07:03;4.80;;;1.50;;
72941;SDS011;69665;55.822;37.330;2023-05-10T10:09:29;4.35;;;1.85;;
72941;SDS011;69665;55.822;37.330;2023-05-10T10:11:55;4.93;;;1.77;;
72941;SDS011;69665;55.822;37.330;2023-05-10T10:14:22;8.48;;;1.90;;
72941;SDS011;69665;55.822;37.330;2023-05-10T10:16:49;5.57;;;1.70;;
72941;SDS011;69665;55.822;37.330;2023-05-10T10:19:17;6.15;;;1.70;;
72941;SDS011;69665;55.822;37.330;2023-05-10T10:21:44;5.20;;;1.95;;
72941;SDS011;69665;55.822;37.330;2023-05-10T10:24:09;4.18;;;1.48;;
72941;SDS011;69665;55.822;37.330;2023-05-10T10:26:35;3.88;;;1.70;;
72941;SDS011;69665;55.822;37.330;2023-05-10T10:31:47;4.00;;;1.77;;
72941;SDS011;69665;55.822;37.330;2023-05-10T10:36:54;4.45;;;1.50;;
72941;SDS011;69665;55.822;37.330;2023-05-10T10:39:22;6.60;;;1.65;;
72941;SDS011;69665;55.822;37.330;2023-05-10T10:41:54;5.95;;;1.88;;
72941;SDS011;69665;55.822;37.330;2023-05-10T10:54:58;3.60;;;1.50;;
72941;SDS011;69665;55.822;37.330;2023-05-10T10:57:26;4.03;;;1.40;;
72941;SDS011;69665;55.822;37.330;2023-05-10T11:03:11;5.28;;;1.50;;
72941;SDS011;69665;55.822;37.330;2023-05-10T11:06:05;3.85;;;1.30;;
72941;SDS011;69665;55.822;37.330;2023-05-10T11:08:31;3.65;;;1.40;;
72941;SDS011;69665;55.822;37.330;2023-05-10T11:18:36;3.55;;;1.30;;
72941;SDS011;69665;55.822;37.330;2023-05-10T11:21:02;3.53;;;1.35;;
72941;SDS011;69665;55.822;37.330;2023-05-10T11:23:31;4.05;;;1.20;;
72941;SDS011;69665;55.822;37.330;2023-05-10T11:25:58;3.83;;;1.45;;
72941;SDS011;69665;55.822;37.330;2023-05-10T11:28:25;4.97;;;1.60;;
72941;SDS011;69665;55.822;37.330;2023-05-10T11:30:52;2.78;;;1.40;;
72941;SDS011;69665;55.822;37.330;2023-05-10T11:33:18;4.63;;;1.77;;
72941;SDS011;69665;55.822;37.330;2023-05-10T11:35:45;4.47;;;1.50;;
72941;SDS011;69665;55.822;37.330;2023-05-10T11:38:11;3.35;;;1.42;;
72941;SDS011;69665;55.822;37.330;2023-05-10T11:40:38;3.00;;;1.27;;
72941;SDS011;69665;55.822;37.330;2023-05-10T11:43:04;4.45;;;1.30;;
72941;SDS011;69665;55.822;37.330;2023-05-10T11:45:33;3.75;;;1.40;;
72941;SDS011;69665;55.822;37.330;2023-05-10T11:47:59;3.60;;;1.40;;
72941;SDS011;69665;55.822;37.330;2023-05-10T11:50:25;4.93;;;1.50;;
72941;SDS011;69665;55.822;37.330;2023-05-10T11:52:55;4.53;;;1.52;;
72941;SDS011;69665;55.822;37.330;2023-05-10T11:55:22;6.00;;;1.58;;
72941;SDS011;69665;55.822;37.330;2023-05-10T11:57:55;4.25;;;1.70;;
72941;SDS011;69665;55.822;37.330;2023-05-10T12:00:25;3.90;;;1.70;;
72941;SDS011;69665;55.822;37.330;2023-05-10T12:02:51;4.18;;;1.60;;
72941;SDS011;69665;55.822;37.330;2023-05-10T12:05:16;4.78;;;1.45;;
72941;SDS011;69665;55.822;37.330;2023-05-10T12:07:42;3.80;;;1.40;;
72941;SDS011;69665;55.822;37.330;2023-05-10T12:12:40;4.10;;;1.50;;
72941;SDS011;69665;55.822;37.330;2023-05-10T12:15:20;5.18;;;1.30;;
72941;SDS011;69665;55.822;37.330;2023-05-10T12:17:47;3.72;;;1.40;;
72941;SDS011;69665;55.822;37.330;2023-05-10T12:20:14;4.13;;;1.52;;
72941;SDS011;69665;55.822;37.330;2023-05-10T12:22:51;4.50;;;1.77;;
72941;SDS011;69665;55.822;37.330;2023-05-10T12:25:18;3.65;;;1.30;;
72941;SDS011;69665;55.822;37.330;2023-05-10T12:27:54;5.80;;;1.73;;
72941;SDS011;69665;55.822;37.330;2023-05-10T12:32:51;3.22;;;1.35;;
72941;SDS011;69665;55.822;37.330;2023-05-10T12:35:17;6.30;;;2.65;;
72941;SDS011;69665;55.822;37.330;2023-05-10T12:37:47;6.95;;;2.63;;
72941;SDS011;69665;55.822;37.330;2023-05-10T12:40:13;4.90;;;2.00;;
72941;SDS011;69665;55.822;37.330;2023-05-10T12:42:39;4.65;;;1.42;;
72941;SDS011;69665;55.822;37.330;2023-05-10T12:45:06;5.18;;;1.63;;
72941;SDS011;69665;55.822;37.330;2023-05-10T12:47:32;5.15;;;1.25;;
72941;SDS011;69665;55.822;37.330;2023-05-10T12:49:59;5.15;;;1.88;;
72941;SDS011;69665;55.822;37.330;2023-05-10T12:52:25;5.93;;;1.65;;
72941;SDS011;69665;55.822;37.330;2023-05-10T12:54:51;4.07;;;1.50;;
72941;SDS011;69665;55.822;37.330;2023-05-10T12:57:18;4.90;;;1.70;;
72941;SDS011;69665;55.822;37.330;2023-05-10T12:59:43;4.97;;;1.60;;
72941;SDS011;69665;55.822;37.330;2023-05-10T13:02:09;6.32;;;1.58;;
72941;SDS011;69665;55.822;37.330;2023-05-10T13:04:35;6.30;;;1.60;;
72941;SDS011;69665;55.822;37.330;2023-05-10T13:07:04;7.80;;;1.63;;
72941;SDS011;69665;55.822;37.330;2023-05-10T13:09:33;3.85;;;1.30;;
72941;SDS011;69665;55.822;37.330;2023-05-10T13:11:59;4.78;;;1.65;;
72941;SDS011;69665;55.822;37.330;2023-05-10T13:14:25;4.65;;;1.77;;
72941;SDS011;69665;55.822;37.330;2023-05-10T13:16:50;4.25;;;1.60;;
72941;SDS011;69665;55.822;37.330;2023-05-10T13:19:16;3.38;;;1.70;;
72941;SDS011;69665;55.822;37.330;2023-05-10T13:21:43;5.88;;;1.70;;
72941;SDS011;69665;55.822;37.330;2023-05-10T13:24:12;5.25;;;1.75;;
72941;SDS011;69665;55.822;37.330;2023-05-10T13:26:41;4.25;;;2.00;;
72941;SDS011;69665;55.822;37.330;2023-05-10T13:29:06;6.18;;;1.77;;
72941;SDS011;69665;55.822;37.330;2023-05-10T13:31:33;5.10;;;1.45;;
72941;SDS011;69665;55.822;37.330;2023-05-10T13:33:59;4.40;;;1.67;;
72941;SDS011;69665;55.822;37.330;2023-05-10T13:36:24;5.25;;;1.80;;
72941;SDS011;69665;55.822;37.330;2023-05-10T13:38:50;6.93;;;2.00;;
72941;SDS011;69665;55.822;37.330;2023-05-10T13:41:16;4.97;;;1.63;;
72941;SDS011;69665;55.822;37.330;2023-05-10T13:43:42;5.60;;;1.90;;
72941;SDS011;69665;55.822;37.330;2023-05-10T13:46:07;14.38;;;6.55;;
72941;SDS011;69665;55.822;37.330;2023-05-10T13:48:33;3.55;;;1.45;;
72941;SDS011;69665;55.822;37.330;2023-05-10T13:50:58;3.90;;;1.63;;
72941;SDS011;69665;55.822;37.330;2023-05-10T13:53:24;4.90;;;1.80;;
72941;SDS011;69665;55.822;37.330;2023-05-10T13:59:02;5.95;;;1.40;;
72941;SDS011;69665;55.822;37.330;2023-05-10T14:01:27;6.20;;;1.67;;
72941;SDS011;69665;55.822;37.330;2023-05-10T14:03:53;4.72;;;1.63;;
72941;SDS011;69665;55.822;37.330;2023-05-10T14:06:19;3.85;;;1.60;;
72941;SDS011;69665;55.822;37.330;2023-05-10T14:08:45;5.90;;;1.70;;
72941;SDS011;69665;55.822;37.330;2023-05-10T14:11:10;4.57;;;1.70;;
72941;SDS011;69665;55.822;37.330;2023-05-10T14:13:36;4.40;;;1.80;;
72941;SDS011;69665;55.822;37.330;2023-05-10T14:16:02;4.43;;;2.28;;
72941;SDS011;69665;55.822;37.330;2023-05-10T14:18:28;5.20;;;1.60;;
72941;SDS011;69665;55.822;37.330;2023-05-10T14:20:53;4.47;;;1.63;;
72941;SDS011;69665;55.822;37.330;2023-05-10T14:23:21;6.47;;;2.53;;
72941;SDS011;69665;55.822;37.330;2023-05-10T14:25:50;6.32;;;2.30;;
72941;SDS011;69665;55.822;37.330;2023-05-10T14:28:16;5.72;;;1.95;;
72941;SDS011;69665;55.822;37.330;2023-05-10T14:30:43;8.20;;;2.80;;
72941;SDS011;69665;55.822;37.330;2023-05-10T14:33:08;4.63;;;1.58;;
72941;SDS011;69665;55.822;37.330;2023-05-10T14:35:34;4.78;;;1.95;;
72941;SDS011;69665;55.822;37.330;2023-05-10T14:37:59;10.20;;;3.60;;
72941;SDS011;69665;55.822;37.330;2023-05-10T14:40:25;5.10;;;2.22;;
72941;SDS011;69665;55.822;37.330;2023-05-10T14:42:51;7.95;;;1.90;;
72941;SDS011;69665;55.822;37.330;2023-05-10T14:45:18;7.18;;;3.08;;
72941;SDS011;69665;55.822;37.330;2023-05-10T14:47:43;5.38;;;1.60;;
72941;SDS011;69665;55.822;37.330;2023-05-10T14:50:09;5.35;;;2.00;;
72941;SDS011;69665;55.822;37.330;2023-05-10T14:56:02;6.47;;;1.90;;
72941;SDS011;69665;55.822;37.330;2023-05-10T14:58:28;5.63;;;1.52;;
72941;SDS011;69665;55.822;37.330;2023-05-10T15:00:54;5.45;;;1.95;;
72941;SDS011;69665;55.822;37.330;2023-05-10T15:03:19;4.97;;;2.00;;
72941;SDS011;69665;55.822;37.330;2023-05-10T15:05:46;4.38;;;1.65;;
72941;SDS011;69665;55.822;37.330;2023-05-10T15:08:11;3.05;;;1.45;;
72941;SDS011;69665;55.822;37.330;2023-05-10T15:10:38;4.28;;;1.77;;
72941;SDS011;69665;55.822;37.330;2023-05-10T15:13:04;5.75;;;1.63;;
72941;SDS011;69665;55.822;37.330;2023-05-10T15:15:29;6.60;;;1.98;;
72941;SDS011;69665;55.822;37.330;2023-05-10T15:17:55;4.28;;;1.60;;
72941;SDS011;69665;55.822;37.330;2023-05-10T15:20:21;3.85;;;1.95;;
72941;SDS011;69665;55.822;37.330;2023-05-10T15:22:47;5.57;;;2.00;;
72941;SDS011;69665;55.822;37.330;2023-05-10T15:25:13;3.85;;;1.55;;
72941;SDS011;69665;55.822;37.330;2023-05-10T15:27:41;6.55;;;1.90;;
72941;SDS011;69665;55.822;37.330;2023-05-10T15:30:08;5.85;;;1.92;;
72941;SDS011;69665;55.822;37.330;2023-05-10T15:32:35;7.03;;;1.98;;
72941;SDS011;69665;55.822;37.330;2023-05-10T15:35:00;5.65;;;1.75;;
72941;SDS011;69665;55.822;37.330;2023-05-10T15:37:26;5.47;;;1.85;;